sensor_id;sensor_type;location;lat;lon;timestamp;pressure;altitude;pressure_sealevel;temperature;humidity
5298;BME280;14738;42.668;23.250;2024-02-23T00:01:44;48539.19;;;-141.90;56.34
5298;BME280;14738;42.668;23.250;2024-02-23T00:04:10;48537.22;;;-141.90;55.06
5298;BME280;14738;42.668;23.250;2024-02-23T00:06:35;48525.31;;;-141.90;54.12
5298;BME280;14738;42.668;23.250;2024-02-23T00:09:01;48515.38;;;-141.90;52.86
5298;BME280;14738;42.668;23.250;2024-02-23T00:11:26;48507.44;;;-141.90;52.93
5298;BME280;14738;42.668;23.250;2024-02-23T00:13:53;48517.34;;;-141.90;53.21
5298;BME280;14738;42.668;23.250;2024-02-23T00:16:19;48537.22;;;-141.90;52.90
5298;BME280;14738;42.668;23.250;2024-02-23T00:18:45;48535.22;;;-141.90;52.34
5298;BME280;14738;42.668;23.250;2024-02-23T00:21:10;48481.63;;;-141.90;53.91
5298;BME280;14738;42.668;23.250;2024-02-23T00:23:35;48513.38;;;-141.90;54.53
5298;BME280;14738;42.668;23.250;2024-02-23T00:26:01;48533.25;;;-141.90;54.57
5298;BME280;14738;42.668;23.250;2024-02-23T00:28:27;48523.31;;;-141.90;55.12
5298;BME280;14738;42.668;23.250;2024-02-23T00:30:52;48533.25;;;-141.90;55.36
5298;BME280;14738;42.668;23.250;2024-02-23T00:33:18;48513.38;;;-141.90;55.55
5298;BME280;14738;42.668;23.250;2024-02-23T00:35:43;48529.28;;;-141.90;55.79
5298;BME280;14738;42.668;23.250;2024-02-23T00:38:09;48529.28;;;-141.90;55.21
5298;BME280;14738;42.668;23.250;2024-02-23T00:40:34;48497.50;;;-141.90;54.59
5298;BME280;14738;42.668;23.250;2024-02-23T00:43:00;48521.34;;;-141.90;55.76
5298;BME280;14738;42.668;23.250;2024-02-23T00:45:26;48525.31;;;-141.90;55.54
5298;BME280;14738;42.668;23.250;2024-02-23T00:47:51;48551.09;;;-141.90;56.51
5298;BME280;14738;42.668;23.250;2024-02-23T00:50:17;48517.34;;;-141.90;56.12
5298;BME280;14738;42.668;23.250;2024-02-23T00:52:42;48533.25;;;-141.90;56.38
5298;BME280;14738;42.668;23.250;2024-02-23T00:55:08;48537.22;;;-141.90;57.09
5298;BME280;14738;42.668;23.250;2024-02-23T00:57:34;48529.28;;;-141.90;57.78
5298;BME280;14738;42.668;23.250;2024-02-23T01:00:01;48509.41;;;-141.90;57.35
5298;BME280;14738;42.668;23.250;2024-02-23T01:02:28;48531.25;;;-141.90;57.02
5298;BME280;14738;42.668;23.250;2024-02-23T01:04:53;48549.13;;;-141.90;57.39
5298;BME280;14738;42.668;23.250;2024-02-23T01:07:24;48549.13;;;-141.90;57.71
5298;BME280;14738;42.668;23.250;2024-02-23T01:09:49;48535.22;;;-141.90;56.78
5298;BME280;14738;42.668;23.250;2024-02-23T01:12:15;48531.25;;;-141.90;57.35
5298;BME280;14738;42.668;23.250;2024-02-23T01:14:40;48553.09;;;-141.90;57.66
5298;BME280;14738;42.668;23.250;2024-02-23T01:17:06;48533.25;;;-141.90;58.02
5298;BME280;14738;42.668;23.250;2024-02-23T01:19:31;48537.22;;;-141.90;58.66
5298;BME280;14738;42.668;23.250;2024-02-23T01:21:56;48545.16;;;-141.90;57.87
5298;BME280;14738;42.668;23.250;2024-02-23T01:24:27;48547.13;;;-141.90;58.07
5298;BME280;14738;42.668;23.250;2024-02-23T01:26:54;48563.03;;;-141.90;59.17
5298;BME280;14738;42.668;23.250;2024-02-23T01:29:21;48557.06;;;-141.90;58.78
5298;BME280;14738;42.668;23.250;2024-02-23T01:31:47;48561.03;;;-141.90;58.13
5298;BME280;14738;42.668;23.250;2024-02-23T01:34:13;48533.25;;;-141.90;58.02
5298;BME280;14738;42.668;23.250;2024-02-23T01:36:38;48541.19;;;-141.90;59.01
5298;BME280;14738;42.668;23.250;2024-02-23T01:39:04;48517.34;;;-141.90;58.76
5298;BME280;14738;42.668;23.250;2024-02-23T01:41:29;48537.22;;;-141.90;58.68
5298;BME280;14738;42.668;23.250;2024-02-23T01:43:55;48537.22;;;-141.90;57.61
5298;BME280;14738;42.668;23.250;2024-02-23T01:46:21;48535.22;;;-141.90;57.50
5298;BME280;14738;42.668;23.250;2024-02-23T01:48:46;48537.22;;;-141.90;57.71
5298;BME280;14738;42.668;23.250;2024-02-23T01:51:12;48553.09;;;-141.90;57.63
5298;BME280;14738;42.668;23.250;2024-02-23T01:53:38;48553.09;;;-141.90;56.95
5298;BME280;14738;42.668;23.250;2024-02-23T01:56:04;48523.31;;;-141.90;56.64
5298;BME280;14738;42.668;23.250;2024-02-23T01:58:30;48549.13;;;-141.90;56.64
5298;BME280;14738;42.668;23.250;2024-02-23T02:00:56;48541.19;;;-141.90;56.38
5298;BME280;14738;42.668;23.250;2024-02-23T02:03:22;48549.13;;;-141.90;56.88
5298;BME280;14738;42.668;23.250;2024-02-23T02:05:47;48501.47;;;-141.90;56.53
5298;BME280;14738;42.668;23.250;2024-02-23T02:08:15;48519.34;;;-141.90;57.04
5298;BME280;14738;42.668;23.250;2024-02-23T02:10:41;48533.25;;;-141.90;58.07
5298;BME280;14738;42.668;23.250;2024-02-23T02:13:07;48531.25;;;-141.90;58.02
5298;BME280;14738;42.668;23.250;2024-02-23T02:15:33;48521.34;;;-141.90;58.61
5298;BME280;14738;42.668;23.250;2024-02-23T02:17:58;48531.25;;;-141.90;58.38
5298;BME280;14738;42.668;23.250;2024-02-23T02:20:24;48521.34;;;-141.90;58.61
5298;BME280;14738;42.668;23.250;2024-02-23T02:22:51;48545.16;;;-141.90;60.15
5298;BME280;14738;42.668;23.250;2024-02-23T02:25:17;48483.59;;;-141.90;59.78
5298;BME280;14738;42.668;23.250;2024-02-23T02:27:43;48531.25;;;-141.90;59.70
5298;BME280;14738;42.668;23.250;2024-02-23T02:30:11;48537.22;;;-141.90;60.25
5298;BME280;14738;42.668;23.250;2024-02-23T02:32:37;48517.34;;;-141.90;60.85
5298;BME280;14738;42.668;23.250;2024-02-23T02:35:02;48551.09;;;-141.90;60.84
5298;BME280;14738;42.668;23.250;2024-02-23T02:37:27;48529.28;;;-141.90;61.37
5298;BME280;14738;42.668;23.250;2024-02-23T02:39:53;48561.03;;;-141.90;60.95
5298;BME280;14738;42.668;23.250;2024-02-23T02:42:18;48531.25;;;-141.90;60.08
5298;BME280;14738;42.668;23.250;2024-02-23T02:44:44;48539.19;;;-141.90;60.08
5298;BME280;14738;42.668;23.250;2024-02-23T02:47:09;48537.22;;;-141.90;59.11
5298;BME280;14738;42.668;23.250;2024-02-23T02:49:34;48531.25;;;-141.90;57.29
5298;BME280;14738;42.668;23.250;2024-02-23T02:52:00;48529.28;;;-141.90;57.38
5298;BME280;14738;42.668;23.250;2024-02-23T02:54:25;48509.41;;;-141.90;57.22
5298;BME280;14738;42.668;23.250;2024-02-23T02:56:50;48531.25;;;-141.90;58.70
5298;BME280;14738;42.668;23.250;2024-02-23T02:59:19;48537.22;;;-141.90;57.83
5298;BME280;14738;42.668;23.250;2024-02-23T03:01:45;48501.47;;;-141.90;58.14
5298;BME280;14738;42.668;23.250;2024-02-23T03:04:12;48533.25;;;-141.90;58.07
5298;BME280;14738;42.668;23.250;2024-02-23T03:06:37;48531.25;;;-141.90;58.61
5298;BME280;14738;42.668;23.250;2024-02-23T03:09:03;48539.19;;;-141.90;58.20
5298;BME280;14738;42.668;23.250;2024-02-23T03:11:28;48511.41;;;-141.90;56.61
5298;BME280;14738;42.668;23.250;2024-02-23T03:13:53;48529.28;;;-141.90;56.51
5298;BME280;14738;42.668;23.250;2024-02-23T03:16:20;48521.34;;;-141.90;57.04
5298;BME280;14738;42.668;23.250;2024-02-23T03:18:50;48541.19;;;-141.90;55.73
5298;BME280;14738;42.668;23.250;2024-02-23T03:21:16;48525.31;;;-141.90;56.09
5298;BME280;14738;42.668;23.250;2024-02-23T03:23:42;48541.19;;;-141.90;57.47
5298;BME280;14738;42.668;23.250;2024-02-23T03:26:07;48515.38;;;-141.90;57.68
5298;BME280;14738;42.668;23.250;2024-02-23T03:28:33;48535.22;;;-141.90;57.75
5298;BME280;14738;42.668;23.250;2024-02-23T03:30:59;48547.13;;;-141.90;58.21
5298;BME280;14738;42.668;23.250;2024-02-23T03:33:25;48531.25;;;-141.90;59.08
5298;BME280;14738;42.668;23.250;2024-02-23T03:35:50;48519.34;;;-141.90;59.68
5298;BME280;14738;42.668;23.250;2024-02-23T03:38:16;48549.13;;;-141.90;59.37
5298;BME280;14738;42.668;23.250;2024-02-23T03:40:41;48529.28;;;-141.90;59.59
5298;BME280;14738;42.668;23.250;2024-02-23T03:43:07;48537.22;;;-141.90;59.58
5298;BME280;14738;42.668;23.250;2024-02-23T03:45:33;48525.31;;;-141.90;59.44
5298;BME280;14738;42.668;23.250;2024-02-23T03:47:59;48531.25;;;-141.90;59.75
5298;BME280;14738;42.668;23.250;2024-02-23T03:50:24;48565.00;;;-141.90;60.38
5298;BME280;14738;42.668;23.250;2024-02-23T03:52:50;48537.22;;;-141.90;60.72
5298;BME280;14738;42.668;23.250;2024-02-23T03:55:15;48553.09;;;-141.90;60.37
5298;BME280;14738;42.668;23.250;2024-02-23T03:57:41;48535.22;;;-141.90;60.47
5298;BME280;14738;42.668;23.250;2024-02-23T04:00:06;48537.22;;;-141.90;59.93
5298;BME280;14738;42.668;23.250;2024-02-23T04:02:33;48525.31;;;-141.90;60.38
5298;BME280;14738;42.668;23.250;2024-02-23T04:04:59;48561.03;;;-141.90;60.96
5298;BME280;14738;42.668;23.250;2024-02-23T04:07:24;48515.38;;;-141.90;60.10
5298;BME280;14738;42.668;23.250;2024-02-23T04:09:49;48563.03;;;-141.90;60.82
5298;BME280;14738;42.668;23.250;2024-02-23T04:12:22;48557.06;;;-141.90;60.76
5298;BME280;14738;42.668;23.250;2024-02-23T04:14:48;48557.06;;;-141.90;60.27
5298;BME280;14738;42.668;23.250;2024-02-23T04:17:13;48533.25;;;-141.90;61.53
5298;BME280;14738;42.668;23.250;2024-02-23T04:19:40;48535.22;;;-141.90;61.31
5298;BME280;14738;42.668;23.250;2024-02-23T04:22:06;48529.28;;;-141.90;60.17
5298;BME280;14738;42.668;23.250;2024-02-23T04:24:34;48543.16;;;-141.90;62.00
5298;BME280;14738;42.668;23.250;2024-02-23T04:26:59;48553.09;;;-141.90;62.32
5298;BME280;14738;42.668;23.250;2024-02-23T04:29:25;48551.09;;;-141.90;62.87
5298;BME280;14738;42.668;23.250;2024-02-23T04:31:50;48533.25;;;-141.90;63.04
5298;BME280;14738;42.668;23.250;2024-02-23T04:34:15;48541.19;;;-141.90;63.09
5298;BME280;14738;42.668;23.250;2024-02-23T04:36:41;48572.94;;;-141.90;63.12
5298;BME280;14738;42.668;23.250;2024-02-23T04:39:07;48539.19;;;-141.90;64.20
5298;BME280;14738;42.668;23.250;2024-02-23T04:41:33;48557.06;;;-141.90;64.65
5298;BME280;14738;42.668;23.250;2024-02-23T04:43:58;48551.09;;;-141.90;64.46
5298;BME280;14738;42.668;23.250;2024-02-23T04:46:25;48570.97;;;-141.90;64.74
5298;BME280;14738;42.668;23.250;2024-02-23T04:48:51;48545.16;;;-141.90;63.38
5298;BME280;14738;42.668;23.250;2024-02-23T04:51:17;48537.22;;;-141.90;62.84
5298;BME280;14738;42.668;23.250;2024-02-23T04:53:42;48563.03;;;-141.90;63.03
5298;BME280;14738;42.668;23.250;2024-02-23T04:56:08;48565.00;;;-141.90;62.49
5298;BME280;14738;42.668;23.250;2024-02-23T04:58:34;48561.03;;;-141.90;62.49
5298;BME280;14738;42.668;23.250;2024-02-23T05:00:59;48549.13;;;-141.90;62.49
5298;BME280;14738;42.668;23.250;2024-02-23T05:03:25;48549.13;;;-141.90;63.24
5298;BME280;14738;42.668;23.250;2024-02-23T05:05:50;48559.06;;;-141.90;63.47
5298;BME280;14738;42.668;23.250;2024-02-23T05:08:19;48549.13;;;-141.90;63.93
5298;BME280;14738;42.668;23.250;2024-02-23T05:10:46;48541.19;;;-141.90;64.35
5298;BME280;14738;42.668;23.250;2024-02-23T05:13:11;48557.06;;;-141.90;63.58
5298;BME280;14738;42.668;23.250;2024-02-23T05:15:37;48543.16;;;-141.90;64.26
5298;BME280;14738;42.668;23.250;2024-02-23T05:18:02;48557.06;;;-141.90;64.36
5298;BME280;14738;42.668;23.250;2024-02-23T05:20:28;48557.06;;;-141.90;63.96
5298;BME280;14738;42.668;23.250;2024-02-23T05:22:53;48549.13;;;-141.90;63.96
5298;BME280;14738;42.668;23.250;2024-02-23T05:25:19;48557.06;;;-141.90;63.73
5298;BME280;14738;42.668;23.250;2024-02-23T05:27:44;48545.16;;;-141.90;64.11
5298;BME280;14738;42.668;23.250;2024-02-23T05:30:10;48545.16;;;-141.90;64.13
5298;BME280;14738;42.668;23.250;2024-02-23T05:32:36;48549.13;;;-141.90;64.43
5298;BME280;14738;42.668;23.250;2024-02-23T05:35:01;48537.22;;;-141.90;64.55
5298;BME280;14738;42.668;23.250;2024-02-23T05:37:27;48553.09;;;-141.90;63.41
5298;BME280;14738;42.668;23.250;2024-02-23T05:39:52;48501.47;;;-141.90;63.80
5298;BME280;14738;42.668;23.250;2024-02-23T05:42:19;48559.06;;;-141.90;63.92
5298;BME280;14738;42.668;23.250;2024-02-23T05:44:44;48535.22;;;-141.90;62.48
5298;BME280;14738;42.668;23.250;2024-02-23T05:47:16;48511.41;;;-141.90;57.61
5298;BME280;14738;42.668;23.250;2024-02-23T06:01:24;48481.63;;;-141.90;45.07
5298;BME280;14738;42.668;23.250;2024-02-23T06:03:49;48461.78;;;-141.90;43.34
5298;BME280;14738;42.668;23.250;2024-02-23T06:06:23;48499.50;;;-141.90;44.06
5298;BME280;14738;42.668;23.250;2024-02-23T06:08:48;48477.66;;;-141.90;42.26
5298;BME280;14738;42.668;23.250;2024-02-23T06:11:15;48457.81;;;-141.90;42.34
5298;BME280;14738;42.668;23.250;2024-02-23T06:13:40;48449.84;;;-141.90;41.96
5298;BME280;14738;42.668;23.250;2024-02-23T06:16:13;48465.75;;;-141.90;40.35
5298;BME280;14738;42.668;23.250;2024-02-23T06:18:39;48469.72;;;-141.90;41.27
5298;BME280;14738;42.668;23.250;2024-02-23T06:25:57;48493.53;;;-141.90;39.91
5298;BME280;14738;42.668;23.250;2024-02-23T06:28:23;48471.69;;;-141.90;38.23
5298;BME280;14738;42.668;23.250;2024-02-23T06:30:48;48451.84;;;-141.90;38.49
5298;BME280;14738;42.668;23.250;2024-02-23T06:33:13;48469.72;;;-141.90;38.30
5298;BME280;14738;42.668;23.250;2024-02-23T06:35:39;48453.81;;;-141.90;38.75
5298;BME280;14738;42.668;23.250;2024-02-23T06:38:04;48481.63;;;-141.90;39.93
5298;BME280;14738;42.668;23.250;2024-02-23T06:40:30;48459.78;;;-141.90;39.60
5298;BME280;14738;42.668;23.250;2024-02-23T06:42:56;48457.81;;;-141.90;38.32
5298;BME280;14738;42.668;23.250;2024-02-23T06:45:21;48453.81;;;-141.90;38.97
5298;BME280;14738;42.668;23.250;2024-02-23T06:47:50;48485.59;;;-141.90;38.60
5298;BME280;14738;42.668;23.250;2024-02-23T06:50:16;48433.97;;;-141.90;40.54
5298;BME280;14738;42.668;23.250;2024-02-23T06:52:41;48441.91;;;-141.90;39.75
5298;BME280;14738;42.668;23.250;2024-02-23T06:55:07;48487.56;;;-141.90;39.16
5298;BME280;14738;42.668;23.250;2024-02-23T06:57:33;48445.88;;;-141.90;40.07
5298;BME280;14738;42.668;23.250;2024-02-23T06:59:58;48459.78;;;-141.90;40.25
5298;BME280;14738;42.668;23.250;2024-02-23T07:02:23;48465.75;;;-141.90;40.92
5298;BME280;14738;42.668;23.250;2024-02-23T07:04:49;48455.81;;;-141.90;40.96
5298;BME280;14738;42.668;23.250;2024-02-23T07:07:14;48473.69;;;-141.90;41.71
5298;BME280;14738;42.668;23.250;2024-02-23T07:16:55;48493.53;;;-141.90;42.41
5298;BME280;14738;42.668;23.250;2024-02-23T07:19:20;48453.81;;;-141.90;42.02
5298;BME280;14738;42.668;23.250;2024-02-23T07:21:46;48465.75;;;-141.90;41.61
5298;BME280;14738;42.668;23.250;2024-02-23T07:24:12;48481.63;;;-141.90;42.31
5298;BME280;14738;42.668;23.250;2024-02-23T07:26:38;48481.63;;;-141.90;41.67
5298;BME280;14738;42.668;23.250;2024-02-23T07:29:04;48453.81;;;-141.90;42.71
5298;BME280;14738;42.668;23.250;2024-02-23T07:31:29;48455.81;;;-141.90;43.67
5298;BME280;14738;42.668;23.250;2024-02-23T07:33:54;48453.81;;;-141.90;43.72
5298;BME280;14738;42.668;23.250;2024-02-23T07:36:20;48449.84;;;-141.90;42.56
5298;BME280;14738;42.668;23.250;2024-02-23T07:38:46;48471.69;;;-141.90;43.62
5298;BME280;14738;42.668;23.250;2024-02-23T07:41:11;48457.81;;;-141.90;43.88
5298;BME280;14738;42.668;23.250;2024-02-23T07:43:38;48439.94;;;-141.90;43.72
5298;BME280;14738;42.668;23.250;2024-02-23T07:46:04;48463.75;;;-141.90;43.31
5298;BME280;14738;42.668;23.250;2024-02-23T07:48:30;48481.63;;;-141.90;43.03
5298;BME280;14738;42.668;23.250;2024-02-23T07:50:55;48465.75;;;-141.90;43.33
5298;BME280;14738;42.668;23.250;2024-02-23T07:53:21;48455.81;;;-141.90;43.10
5298;BME280;14738;42.668;23.250;2024-02-23T07:55:46;48481.63;;;-141.90;42.67
5298;BME280;14738;42.668;23.250;2024-02-23T07:58:12;48463.75;;;-141.90;43.90
5298;BME280;14738;42.668;23.250;2024-02-23T08:00:37;48479.63;;;-141.90;43.11
5298;BME280;14738;42.668;23.250;2024-02-23T08:03:03;48441.91;;;-141.90;42.26
5298;BME280;14738;42.668;23.250;2024-02-23T08:05:29;48461.78;;;-141.90;42.37
5298;BME280;14738;42.668;23.250;2024-02-23T08:07:54;48469.72;;;-141.90;42.76
5298;BME280;14738;42.668;23.250;2024-02-23T08:10:20;48457.81;;;-141.90;42.85
5298;BME280;14738;42.668;23.250;2024-02-23T08:12:46;48473.69;;;-141.90;43.62
5298;BME280;14738;42.668;23.250;2024-02-23T08:15:12;48487.56;;;-141.90;43.79
5298;BME280;14738;42.668;23.250;2024-02-23T08:17:37;48459.78;;;-141.90;43.63
5298;BME280;14738;42.668;23.250;2024-02-23T08:20:03;48461.78;;;-141.90;43.55
5298;BME280;14738;42.668;23.250;2024-02-23T08:22:29;48481.63;;;-141.90;43.11
5298;BME280;14738;42.668;23.250;2024-02-23T08:24:54;48441.91;;;-141.90;42.38
5298;BME280;14738;42.668;23.250;2024-02-23T08:27:20;48433.97;;;-141.90;41.85
5298;BME280;14738;42.668;23.250;2024-02-23T08:29:45;48471.69;;;-141.90;41.85
5298;BME280;14738;42.668;23.250;2024-02-23T08:32:10;48465.75;;;-141.90;41.41
5298;BME280;14738;42.668;23.250;2024-02-23T08:34:36;48451.84;;;-141.90;39.87
5298;BME280;14738;42.668;23.250;2024-02-23T08:37:01;48469.72;;;-141.90;40.32
5298;BME280;14738;42.668;23.250;2024-02-23T08:39:27;48453.81;;;-141.90;39.38
5298;BME280;14738;42.668;23.250;2024-02-23T08:44:19;48465.75;;;-141.90;39.00
5298;BME280;14738;42.668;23.250;2024-02-23T08:46:44;48459.78;;;-141.90;39.14
5298;BME280;14738;42.668;23.250;2024-02-23T08:49:09;48463.75;;;-141.90;38.31
5298;BME280;14738;42.668;23.250;2024-02-23T08:51:35;48493.53;;;-141.90;38.50
5298;BME280;14738;42.668;23.250;2024-02-23T08:54:00;48459.78;;;-141.90;38.28
5298;BME280;14738;42.668;23.250;2024-02-23T08:56:30;48457.81;;;-141.90;37.23
5298;BME280;14738;42.668;23.250;2024-02-23T08:58:57;48449.84;;;-141.90;37.98
5298;BME280;14738;42.668;23.250;2024-02-23T09:01:25;48473.69;;;-141.90;37.18
5298;BME280;14738;42.668;23.250;2024-02-23T09:03:52;48477.66;;;-141.90;38.06
5298;BME280;14738;42.668;23.250;2024-02-23T09:06:17;48437.94;;;-141.90;37.30
5298;BME280;14738;42.668;23.250;2024-02-23T09:08:42;48432.00;;;-141.90;37.50
5298;BME280;14738;42.668;23.250;2024-02-23T09:11:08;48485.59;;;-141.90;35.52
5298;BME280;14738;42.668;23.250;2024-02-23T09:13:36;48469.72;;;-141.90;36.13
5298;BME280;14738;42.668;23.250;2024-02-23T09:16:03;48471.69;;;-141.90;36.07
5298;BME280;14738;42.668;23.250;2024-02-23T09:18:29;48469.72;;;-141.90;36.48
5298;BME280;14738;42.668;23.250;2024-02-23T09:20:54;48465.75;;;-141.90;36.05
5298;BME280;14738;42.668;23.250;2024-02-23T09:23:19;48455.81;;;-141.90;35.64
5298;BME280;14738;42.668;23.250;2024-02-23T09:25:45;48463.75;;;-141.90;35.51
5298;BME280;14738;42.668;23.250;2024-02-23T09:28:10;48432.00;;;-141.90;35.57
5298;BME280;14738;42.668;23.250;2024-02-23T09:30:36;48473.69;;;-141.90;35.73
5298;BME280;14738;42.668;23.250;2024-02-23T09:33:02;48457.81;;;-141.90;35.18
5298;BME280;14738;42.668;23.250;2024-02-23T09:35:28;48449.84;;;-141.90;35.38
5298;BME280;14738;42.668;23.250;2024-02-23T09:37:53;48447.88;;;-141.90;34.80
5298;BME280;14738;42.668;23.250;2024-02-23T09:40:19;48439.94;;;-141.90;35.03
5298;BME280;14738;42.668;23.250;2024-02-23T09:42:55;48467.72;;;-141.90;35.71
5298;BME280;14738;42.668;23.250;2024-02-23T09:45:21;48441.91;;;-141.90;35.48
5298;BME280;14738;42.668;23.250;2024-02-23T09:47:47;48457.81;;;-141.90;35.66
5298;BME280;14738;42.668;23.250;2024-02-23T09:50:13;48453.81;;;-141.90;35.33
5298;BME280;14738;42.668;23.250;2024-02-23T09:52:40;48459.78;;;-141.90;34.21
5298;BME280;14738;42.668;23.250;2024-02-23T09:55:06;48471.69;;;-141.90;34.30
5298;BME280;14738;42.668;23.250;2024-02-23T09:57:31;48443.91;;;-141.90;34.62
5298;BME280;14738;42.668;23.250;2024-02-23T09:59:57;48481.63;;;-141.90;34.80
5298;BME280;14738;42.668;23.250;2024-02-23T10:02:23;48437.94;;;-141.90;34.48
5298;BME280;14738;42.668;23.250;2024-02-23T10:04:49;48451.84;;;-141.90;34.55
5298;BME280;14738;42.668;23.250;2024-02-23T10:07:16;48441.91;;;-141.90;34.61
5298;BME280;14738;42.668;23.250;2024-02-23T10:09:42;48455.81;;;-141.90;34.93
5298;BME280;14738;42.668;23.250;2024-02-23T10:12:08;48465.75;;;-141.90;34.05
5298;BME280;14738;42.668;23.250;2024-02-23T10:14:33;48465.75;;;-141.90;32.85
5298;BME280;14738;42.668;23.250;2024-02-23T10:16:58;48467.72;;;-141.90;32.37
5298;BME280;14738;42.668;23.250;2024-02-23T10:19:25;48479.63;;;-141.90;33.30
5298;BME280;14738;42.668;23.250;2024-02-23T10:21:54;48481.63;;;-141.90;32.90
5298;BME280;14738;42.668;23.250;2024-02-23T10:24:19;48457.81;;;-141.90;30.95
5298;BME280;14738;42.668;23.250;2024-02-23T10:26:45;48507.44;;;-141.90;31.49
5298;BME280;14738;42.668;23.250;2024-02-23T10:29:10;48471.69;;;-141.90;31.00
5298;BME280;14738;42.668;23.250;2024-02-23T10:31:36;48509.41;;;-141.90;30.25
5298;BME280;14738;42.668;23.250;2024-02-23T10:34:07;48483.59;;;-141.90;29.77
5298;BME280;14738;42.668;23.250;2024-02-23T10:36:42;48430.00;;;-141.90;30.59
5298;BME280;14738;42.668;23.250;2024-02-23T10:39:08;48461.78;;;-141.90;30.47
5298;BME280;14738;42.668;23.250;2024-02-23T10:41:35;48481.63;;;-141.90;31.45
5298;BME280;14738;42.668;23.250;2024-02-23T10:44:04;48469.72;;;-141.90;30.94
5298;BME280;14738;42.668;23.250;2024-02-23T10:46:31;48485.59;;;-141.90;30.78
5298;BME280;14738;42.668;23.250;2024-02-23T10:48:58;48477.66;;;-141.90;30.30
5298;BME280;14738;42.668;23.250;2024-02-23T10:51:24;48457.81;;;-141.90;30.56
5298;BME280;14738;42.668;23.250;2024-02-23T10:53:52;48485.59;;;-141.90;30.17
5298;BME280;14738;42.668;23.250;2024-02-23T10:56:17;48445.88;;;-141.90;30.97
5298;BME280;14738;42.668;23.250;2024-02-23T10:58:43;48449.84;;;-141.90;31.77
5298;BME280;14738;42.668;23.250;2024-02-23T11:01:09;48443.91;;;-141.90;32.35
5298;BME280;14738;42.668;23.250;2024-02-23T11:03:36;48437.94;;;-141.90;31.86
5298;BME280;14738;42.668;23.250;2024-02-23T11:06:06;48459.78;;;-141.90;31.42
5298;BME280;14738;42.668;23.250;2024-02-23T11:08:35;48426.03;;;-141.90;30.82
5298;BME280;14738;42.668;23.250;2024-02-23T11:11:07;48453.81;;;-141.90;31.52
5298;BME280;14738;42.668;23.250;2024-02-23T11:13:37;48437.94;;;-141.90;31.68
5298;BME280;14738;42.668;23.250;2024-02-23T11:16:03;48410.16;;;-141.90;31.02
5298;BME280;14738;42.668;23.250;2024-02-23T11:18:29;48437.94;;;-141.90;31.39
5298;BME280;14738;42.668;23.250;2024-02-23T11:20:58;48469.72;;;-141.90;31.49
5298;BME280;14738;42.668;23.250;2024-02-23T11:23:23;48459.78;;;-141.90;31.98
5298;BME280;14738;42.668;23.250;2024-02-23T11:26:04;48481.63;;;-141.90;31.38
5298;BME280;14738;42.668;23.250;2024-02-23T11:28:31;48435.97;;;-141.90;31.32
5298;BME280;14738;42.668;23.250;2024-02-23T11:30:57;48453.81;;;-141.90;30.81
5298;BME280;14738;42.668;23.250;2024-02-23T11:33:30;48437.94;;;-141.90;30.91
5298;BME280;14738;42.668;23.250;2024-02-23T11:36:07;48457.81;;;-141.90;31.28
5298;BME280;14738;42.668;23.250;2024-02-23T11:38:33;48465.75;;;-141.90;30.97
5298;BME280;14738;42.668;23.250;2024-02-23T11:41:00;48459.78;;;-141.90;31.68
5298;BME280;14738;42.668;23.250;2024-02-23T11:43:26;48453.81;;;-141.90;31.40
5298;BME280;14738;42.668;23.250;2024-02-23T11:45:53;48453.81;;;-141.90;30.89
5298;BME280;14738;42.668;23.250;2024-02-23T11:48:18;48453.81;;;-141.90;31.12
5298;BME280;14738;42.668;23.250;2024-02-23T11:50:43;48473.69;;;-141.90;31.27
5298;BME280;14738;42.668;23.250;2024-02-23T11:53:09;48459.78;;;-141.90;30.96
5298;BME280;14738;42.668;23.250;2024-02-23T11:55:35;48463.75;;;-141.90;30.43
5298;BME280;14738;42.668;23.250;2024-02-23T11:58:00;48457.81;;;-141.90;30.41
5298;BME280;14738;42.668;23.250;2024-02-23T12:00:26;48453.81;;;-141.90;30.43
5298;BME280;14738;42.668;23.250;2024-02-23T12:02:51;48477.66;;;-141.90;30.73
5298;BME280;14738;42.668;23.250;2024-02-23T12:05:16;48457.81;;;-141.90;30.84
5298;BME280;14738;42.668;23.250;2024-02-23T12:07:42;48439.94;;;-141.90;30.66
5298;BME280;14738;42.668;23.250;2024-02-23T12:10:08;48447.88;;;-141.90;30.64
5298;BME280;14738;42.668;23.250;2024-02-23T12:12:35;48467.72;;;-141.90;30.39
5298;BME280;14738;42.668;23.250;2024-02-23T12:15:01;48457.81;;;-141.90;30.70
5298;BME280;14738;42.668;23.250;2024-02-23T12:17:27;48443.91;;;-141.90;30.56
5298;BME280;14738;42.668;23.250;2024-02-23T12:19:59;48467.72;;;-141.90;30.13
5298;BME280;14738;42.668;23.250;2024-02-23T12:22:25;48461.78;;;-141.90;30.69
5298;BME280;14738;42.668;23.250;2024-02-23T12:24:50;48465.75;;;-141.90;30.67
5298;BME280;14738;42.668;23.250;2024-02-23T12:27:19;48465.75;;;-141.90;31.07
5298;BME280;14738;42.668;23.250;2024-02-23T12:29:54;48447.88;;;-141.90;31.37
5298;BME280;14738;42.668;23.250;2024-02-23T12:32:20;48469.72;;;-141.90;30.17
5298;BME280;14738;42.668;23.250;2024-02-23T12:34:47;48445.88;;;-141.90;30.18
5298;BME280;14738;42.668;23.250;2024-02-23T12:37:16;48465.75;;;-141.90;29.06
5298;BME280;14738;42.668;23.250;2024-02-23T12:39:42;48469.72;;;-141.90;29.20
5298;BME280;14738;42.668;23.250;2024-02-23T12:42:08;48453.81;;;-141.90;29.81
5298;BME280;14738;42.668;23.250;2024-02-23T12:44:33;48449.84;;;-141.90;29.88
5298;BME280;14738;42.668;23.250;2024-02-23T12:46:59;48453.81;;;-141.90;29.41
5298;BME280;14738;42.668;23.250;2024-02-23T12:49:24;48473.69;;;-141.90;29.06
5298;BME280;14738;42.668;23.250;2024-02-23T12:51:50;48465.75;;;-141.90;29.42
5298;BME280;14738;42.668;23.250;2024-02-23T12:54:15;48451.84;;;-141.90;29.46
5298;BME280;14738;42.668;23.250;2024-02-23T12:56:40;48453.81;;;-141.90;29.31
5298;BME280;14738;42.668;23.250;2024-02-23T12:59:06;48453.81;;;-141.90;29.36
5298;BME280;14738;42.668;23.250;2024-02-23T13:01:32;48414.13;;;-141.90;29.44